LiveATC.Net - Listen to live air traffic control over the Internet!

ICAO: KALB  IATA: ALB   Airport: Albany International Airport
City: Albany   State/Province: New York
Country: United States   Continent: North America
KALB METAR Weather: KALB 212251Z 00000KT 10SM FEW014 FEW080 SCT120 18/16 A2952 RMK AO2 SLP995 T01780161
KALB Flight Activity (FlightAware)
KALB Airport Info   (AirNav) (iFlightPlanner)
KALB VFR Sectional Chart   (iFlightPlanner) 
KALB IFR Low Chart   (iFlightPlanner) 
KALB Gnd/Twr/Approach
Feed Status: UP   Listeners: 0
Listen right in your browser - requires Flash (in browser, requires Flash)
Click here to listen with your own player (launches your MP3 player)
KALB Gnd/Twr/Approach Audio Archives
Albany Approach/Departure118.050
Albany Approach/Departure127.150
Albany Approach/Departure132.825
Albany Ground121.700
Albany Tower119.500


Unauthorized use prohibited. See Terms of Service

Find LiveATC Audio Streams

Airport/ARTCC Code

(e.g., 124.400, 128.75)
Site-wide search

Browse LiveATC Feeds
LiveATC Coverage Map
Top 50 LiveATC Feeds
Bad Weather Areas

Offer a LiveATC Feed
Press Inquiries

LiveATC on iPhone
LiveATC on Android

Windows Phone
Windows 8/10

LiveATC Mobile
(Mobile browser)

ATC Audio Archives
Interesting Recordings

LiveATC Forums

Home Page
Make a Donation
LiveATC Store

Terms of Use
Privacy Policy

Canadian Air Freqs


FAA Airport Status
Nat'l Airspace Status
Arrival Demand Charts

Server Software By: